createdAt,value
2023-03-22T00:00:48.581Z,9.23
2023-03-22T00:01:49.973Z,8.53
2023-03-22T00:02:51.790Z,5.90
2023-03-22T00:03:53.212Z,6.43
2023-03-22T00:04:54.955Z,8.57
2023-03-22T00:05:57.114Z,6.77
2023-03-22T00:06:58.543Z,7.50
2023-03-22T00:07:59.873Z,7.27
2023-03-22T00:09:01.234Z,8.10
2023-03-22T00:10:02.545Z,7.33
2023-03-22T00:11:07.293Z,10.70
2023-03-22T00:12:08.717Z,6.03
2023-03-22T00:13:11.301Z,7.43
2023-03-22T00:14:12.732Z,8.27
2023-03-22T00:15:15.506Z,6.50
2023-03-22T00:16:17.565Z,7.83
2023-03-22T00:17:23.007Z,7.27
2023-03-22T00:18:24.378Z,4.97
2023-03-22T00:19:26.606Z,6.60
2023-03-22T00:20:30.404Z,7.30
2023-03-22T00:21:31.717Z,5.33
2023-03-22T00:22:33.099Z,6.27
2023-03-22T00:23:34.469Z,5.97
2023-03-22T00:24:35.806Z,4.97
2023-03-22T00:25:37.153Z,5.23
2023-03-22T00:26:38.862Z,5.87
2023-03-22T00:27:40.666Z,5.47
2023-03-22T00:28:42.245Z,7.17
2023-03-22T00:29:43.596Z,6.30
2023-03-22T00:30:51.811Z,6.53
2023-03-22T00:31:54.339Z,6.43
2023-03-22T00:32:55.655Z,6.23
2023-03-22T00:33:56.977Z,5.97
2023-03-22T00:34:58.509Z,6.83
2023-03-22T00:36:06.553Z,6.87
2023-03-22T00:37:08.048Z,4.93
2023-03-22T00:38:14.387Z,5.83
2023-03-22T00:39:16.708Z,5.70
2023-03-22T00:40:18.486Z,6.67
2023-03-22T00:41:20.976Z,7.13
2023-03-22T00:42:22.348Z,6.77
2023-03-22T00:43:23.730Z,8.47
2023-03-22T00:44:25.348Z,8.40
2023-03-22T00:45:26.986Z,8.20
2023-03-22T00:46:28.378Z,7.70
2023-03-22T00:47:29.865Z,7.23
2023-03-22T00:48:31.395Z,4.97
2023-03-22T00:49:33.050Z,5.77
2023-03-22T00:50:34.425Z,5.70
2023-03-22T00:51:36.052Z,6.10
2023-03-22T00:52:37.497Z,7.50
2023-03-22T00:53:42.547Z,6.37
2023-03-22T00:54:44.782Z,6.87
2023-03-22T00:55:46.154Z,6.43
2023-03-22T00:56:49.758Z,6.77
2023-03-22T00:57:51.611Z,6.07
2023-03-22T00:58:53.107Z,6.40
2023-03-22T00:59:55.826Z,6.50
2023-03-22T01:00:57.349Z,6.17
2023-03-22T01:01:59.034Z,6.90
2023-03-22T01:03:04.645Z,7.13
2023-03-22T01:04:06.253Z,6.07
2023-03-22T01:05:07.824Z,6.00
2023-03-22T01:06:09.901Z,6.57
2023-03-22T01:07:11.318Z,6.37
2023-03-22T01:08:12.900Z,6.87
2023-03-22T01:09:14.922Z,5.70
2023-03-22T01:10:16.920Z,6.53
2023-03-22T01:11:18.461Z,6.10
2023-03-22T01:12:20.271Z,5.57
2023-03-22T01:13:21.619Z,6.83
2023-03-22T01:14:23.997Z,8.13
2023-03-22T01:15:25.538Z,7.63
2023-03-22T01:16:27.358Z,7.13
2023-03-22T01:17:28.845Z,6.27
2023-03-22T01:18:30.399Z,4.97
2023-03-22T01:19:31.832Z,6.50
2023-03-22T01:20:33.712Z,5.97
2023-03-22T01:21:35.130Z,5.67
2023-03-22T01:22:36.714Z,6.00
2023-03-22T01:23:38.383Z,5.17
2023-03-22T01:24:39.733Z,5.23
2023-03-22T01:25:41.175Z,6.20
2023-03-22T01:26:42.835Z,4.77
2023-03-22T01:27:44.708Z,7.10
2023-03-22T01:28:46.124Z,5.07
2023-03-22T01:29:47.463Z,5.93
2023-03-22T01:30:50.044Z,5.33
2023-03-22T01:31:51.779Z,5.93
2023-03-22T01:32:53.345Z,6.10
2023-03-22T01:33:54.763Z,5.30
2023-03-22T01:34:57.494Z,7.27
2023-03-22T01:36:00.319Z,6.33
2023-03-22T01:37:03.007Z,5.80
2023-03-22T01:38:05.673Z,7.40
2023-03-22T01:39:10.382Z,5.40
2023-03-22T01:40:13.222Z,5.63
2023-03-22T01:41:16.004Z,8.07
2023-03-22T01:42:19.226Z,6.20
2023-03-22T01:43:20.888Z,5.80
2023-03-22T01:44:23.165Z,6.33
2023-03-22T01:45:33.682Z,7.87
2023-03-22T01:46:35.254Z,6.27
2023-03-22T01:47:36.790Z,5.33
2023-03-22T01:48:45.763Z,9.53
2023-03-22T01:49:47.518Z,8.83
2023-03-22T01:50:56.112Z,5.07
2023-03-22T01:52:00.800Z,7.07
2023-03-22T01:53:34.913Z,6.67
2023-03-22T01:54:42.818Z,6.03
2023-03-22T01:55:59.338Z,7.40
2023-03-22T01:57:04.916Z,5.17
2023-03-22T01:58:15.979Z,7.10
2023-03-22T01:59:23.766Z,4.97
2023-03-22T02:00:58.413Z,9.73
2023-03-22T02:02:22.069Z,6.07
2023-03-22T02:03:37.798Z,5.60
2023-03-22T02:04:40.262Z,6.17
2023-03-22T02:05:43.684Z,5.97
2023-03-22T02:06:47.182Z,6.33
2023-03-22T02:07:52.758Z,6.93
2023-03-22T02:08:57.928Z,5.47
2023-03-22T02:10:00.183Z,7.77
2023-03-22T02:11:16.240Z,5.83
2023-03-22T02:12:26.856Z,5.93
2023-03-22T02:13:38.908Z,7.00
2023-03-22T02:15:01.978Z,7.53
2023-03-22T02:16:40.806Z,6.63
2023-03-22T02:17:51.120Z,5.70
2023-03-22T02:19:13.999Z,7.23
2023-03-22T02:20:19.018Z,5.20
2023-03-22T02:21:24.526Z,5.50
2023-03-22T02:22:38.953Z,5.77
2023-03-22T02:23:50.432Z,5.63
2023-03-22T02:25:06.919Z,7.97
2023-03-22T02:26:23.509Z,8.33
2023-03-22T02:27:34.213Z,5.10
2023-03-22T02:28:43.663Z,5.60
2023-03-22T02:29:48.683Z,7.13
2023-03-22T02:31:00.478Z,7.17
2023-03-22T02:32:01.903Z,7.30
2023-03-22T02:33:05.162Z,8.23
2023-03-22T02:34:15.571Z,9.90
2023-03-22T02:35:25.944Z,7.67
2023-03-22T02:36:33.062Z,6.30
2023-03-22T02:37:41.517Z,9.53
2023-03-22T02:38:45.805Z,8.57
2023-03-22T02:39:50.955Z,6.27
2023-03-22T02:41:11.264Z,6.57
2023-03-22T02:42:18.769Z,7.10
2023-03-22T02:43:38.455Z,6.27
2023-03-22T02:44:46.824Z,8.07
2023-03-22T02:45:52.255Z,7.23
2023-03-22T02:47:05.501Z,6.83
2023-03-22T02:48:22.160Z,6.77
2023-03-22T02:49:31.126Z,7.33
2023-03-22T02:50:40.936Z,7.27
2023-03-22T02:51:42.356Z,7.93
2023-03-22T02:52:51.043Z,5.47
2023-03-22T02:53:57.544Z,6.47
2023-03-22T02:55:12.137Z,6.20
2023-03-22T02:56:16.582Z,10.07
2023-03-22T02:57:33.290Z,5.77
2023-03-22T02:58:39.484Z,6.73
2023-03-22T02:59:42.024Z,5.97
2023-03-22T03:00:44.526Z,7.00
2023-03-22T03:01:49.195Z,8.67
2023-03-22T03:02:52.545Z,5.23
2023-03-22T03:03:56.547Z,6.47
2023-03-22T03:04:59.088Z,6.33
2023-03-22T03:06:02.702Z,5.20
2023-03-22T03:07:05.983Z,6.53
2023-03-22T03:08:08.211Z,7.13
2023-03-22T03:09:13.687Z,6.43
2023-03-22T03:10:16.111Z,6.30
2023-03-22T03:11:17.964Z,6.73
2023-03-22T03:12:22.858Z,5.13
2023-03-22T03:13:26.210Z,7.60
2023-03-22T03:14:29.740Z,6.00
2023-03-22T03:15:31.686Z,7.73
2023-03-22T03:16:36.958Z,7.10
2023-03-22T03:17:48.905Z,5.97
2023-03-22T03:18:53.294Z,9.00
2023-03-22T03:20:09.294Z,9.70
2023-03-22T03:21:20.206Z,8.27
2023-03-22T03:22:28.244Z,5.90
2023-03-22T03:23:52.660Z,7.17
2023-03-22T03:25:08.820Z,7.63
2023-03-22T03:26:13.466Z,7.03
2023-03-22T03:27:17.664Z,6.10
2023-03-22T03:28:30.086Z,9.83
2023-03-22T03:29:39.686Z,6.57
2023-03-22T03:30:45.501Z,7.80
2023-03-22T03:31:52.637Z,7.07
2023-03-22T03:32:56.394Z,6.60
2023-03-22T03:34:05.422Z,7.40
2023-03-22T03:35:22.231Z,8.70
2023-03-22T03:36:24.548Z,5.50
2023-03-22T03:37:28.237Z,7.17
2023-03-22T03:38:31.449Z,6.43
2023-03-22T03:39:35.667Z,7.67
2023-03-22T03:40:40.589Z,7.53
2023-03-22T03:41:43.529Z,5.80
2023-03-22T03:42:48.134Z,9.17
2023-03-22T03:43:51.253Z,7.43
2023-03-22T03:44:52.815Z,6.43
2023-03-22T03:45:54.812Z,6.20
2023-03-22T03:46:56.706Z,6.43
2023-03-22T03:47:59.471Z,5.37
2023-03-22T03:49:02.543Z,8.90
2023-03-22T03:50:04.664Z,5.40
2023-03-22T03:51:06.473Z,7.37
2023-03-22T03:52:07.831Z,6.53
2023-03-22T03:53:09.269Z,5.87
2023-03-22T03:54:10.817Z,5.73
2023-03-22T03:55:12.266Z,6.10
2023-03-22T03:56:13.674Z,5.93
2023-03-22T03:57:19.386Z,6.60
2023-03-22T03:58:20.788Z,4.80
2023-03-22T03:59:22.566Z,6.13
2023-03-22T04:00:25.781Z,5.60
2023-03-22T04:02:06.033Z,5.53
2023-03-22T04:03:08.630Z,6.30
2023-03-22T04:04:27.161Z,5.83
2023-03-22T04:05:34.418Z,7.80
2023-03-22T04:06:35.898Z,8.40
2023-03-22T04:07:43.680Z,6.30
2023-03-22T04:08:45.455Z,5.97
2023-03-22T04:09:48.887Z,5.40
2023-03-22T04:10:55.501Z,7.73
2023-03-22T04:11:57.259Z,4.83
2023-03-22T04:12:58.846Z,6.10
2023-03-22T04:14:00.258Z,5.33
2023-03-22T04:15:01.812Z,4.93
2023-03-22T04:16:04.267Z,6.47
2023-03-22T04:17:09.359Z,4.97
2023-03-22T04:18:11.247Z,6.57
2023-03-22T04:19:13.258Z,5.97
2023-03-22T04:20:14.601Z,5.90
2023-03-22T04:21:16.471Z,4.63
2023-03-22T04:22:34.708Z,6.87
2023-03-22T04:23:36.751Z,5.93
2023-03-22T04:24:39.180Z,6.27
2023-03-22T04:25:41.761Z,4.57
2023-03-22T04:26:45.384Z,6.13
2023-03-22T04:27:55.842Z,5.43
2023-03-22T04:28:58.538Z,7.43
2023-03-22T04:30:00.900Z,7.67
2023-03-22T04:31:21.063Z,4.47
2023-03-22T04:32:26.947Z,5.00
2023-03-22T04:33:32.377Z,5.80
2023-03-22T04:34:42.824Z,5.17
2023-03-22T04:35:46.695Z,5.77
2023-03-22T04:36:49.724Z,6.47
2023-03-22T04:38:09.650Z,4.90
2023-03-22T04:39:11.663Z,5.53
2023-03-22T04:40:16.620Z,4.90
2023-03-22T04:41:23.336Z,5.43
2023-03-22T04:42:27.189Z,7.77
2023-03-22T04:43:47.119Z,4.53
2023-03-22T04:44:50.241Z,5.53
2023-03-22T04:45:54.609Z,5.67
2023-03-22T04:47:00.025Z,4.77
2023-03-22T04:48:01.472Z,4.40
2023-03-22T04:49:04.203Z,5.13
2023-03-22T04:50:09.166Z,4.50
2023-03-22T04:51:17.790Z,5.70
2023-03-22T04:52:40.968Z,6.40
2023-03-22T04:53:42.351Z,3.90
2023-03-22T04:54:45.268Z,6.50
2023-03-22T04:55:47.136Z,4.50
2023-03-22T04:56:48.597Z,5.40
2023-03-22T04:57:54.568Z,4.57
2023-03-22T04:58:57.605Z,4.57
2023-03-22T04:59:58.918Z,3.87
2023-03-22T05:01:00.421Z,5.67
2023-03-22T05:02:01.839Z,4.03
2023-03-22T05:03:08.387Z,5.27
2023-03-22T05:04:18.302Z,4.53
2023-03-22T05:05:20.512Z,5.20
2023-03-22T05:06:23.422Z,4.33
2023-03-22T05:07:35.318Z,5.37
2023-03-22T05:08:38.000Z,5.20
2023-03-22T05:09:39.500Z,4.40
2023-03-22T05:10:41.640Z,4.40
2023-03-22T05:11:43.463Z,5.63
2023-03-22T05:12:56.485Z,4.57
2023-03-22T05:14:05.303Z,6.13
2023-03-22T05:15:07.486Z,5.40
2023-03-22T05:16:12.213Z,4.97
2023-03-22T05:17:21.544Z,4.97
2023-03-22T05:18:26.184Z,5.23
2023-03-22T05:19:29.265Z,5.97
2023-03-22T05:20:30.694Z,5.70
2023-03-22T05:21:45.806Z,5.77
2023-03-22T05:22:50.700Z,4.83
2023-03-22T05:23:57.266Z,4.57
2023-03-22T05:24:59.062Z,6.50
2023-03-22T05:26:04.048Z,4.77
2023-03-22T05:27:06.192Z,5.03
2023-03-22T05:28:08.601Z,5.13
2023-03-22T05:29:19.619Z,5.43
2023-03-22T05:30:43.713Z,7.60
2023-03-22T05:32:01.368Z,6.67
2023-03-22T05:33:04.553Z,4.70
2023-03-22T05:34:10.936Z,5.13
2023-03-22T05:35:14.108Z,4.80
2023-03-22T05:36:21.289Z,5.90
2023-03-22T05:37:41.518Z,6.73
2023-03-22T05:38:44.646Z,6.23
2023-03-22T05:39:46.104Z,6.03
2023-03-22T05:40:47.497Z,5.70
2023-03-22T05:41:48.870Z,4.10
2023-03-22T05:42:50.481Z,6.93
2023-03-22T05:43:56.331Z,5.77
2023-03-22T05:44:57.833Z,6.70
2023-03-22T05:45:59.322Z,5.17
2023-03-22T05:47:26.763Z,5.53
2023-03-22T05:48:34.896Z,5.13
2023-03-22T05:49:36.327Z,4.90
2023-03-22T05:50:38.874Z,4.67
2023-03-22T05:51:42.460Z,4.30
2023-03-22T05:52:46.096Z,5.83
2023-03-22T05:54:07.563Z,5.77
2023-03-22T05:55:17.376Z,4.50
2023-03-22T05:56:24.061Z,4.57
2023-03-22T05:57:29.973Z,5.27
2023-03-22T05:58:31.784Z,5.70
2023-03-22T05:59:33.757Z,5.20
2023-03-22T06:00:35.959Z,6.73
2023-03-22T06:02:00.194Z,6.90
2023-03-22T06:03:03.277Z,5.93
2023-03-22T06:04:06.278Z,5.70
2023-03-22T06:05:39.944Z,5.77
2023-03-22T06:06:42.571Z,5.13
2023-03-22T06:08:00.157Z,6.40
2023-03-22T06:09:15.877Z,5.67
2023-03-22T06:10:19.188Z,5.60
2023-03-22T06:11:20.701Z,5.07
2023-03-22T06:12:24.669Z,6.50
2023-03-22T06:13:34.080Z,5.90
2023-03-22T06:15:17.805Z,7.90
2023-03-22T06:16:21.649Z,5.67
2023-03-22T06:17:24.039Z,6.27
2023-03-22T06:18:25.454Z,5.00
2023-03-22T06:19:33.571Z,4.43
2023-03-22T06:20:39.113Z,4.90
2023-03-22T06:21:47.418Z,5.67
2023-03-22T06:22:50.588Z,5.40
2023-03-22T06:23:52.557Z,7.27
2023-03-22T06:24:54.330Z,6.57
2023-03-22T06:26:05.945Z,5.67
2023-03-22T06:27:10.051Z,6.57
2023-03-22T06:28:13.904Z,5.33
2023-03-22T06:29:22.999Z,5.30
2023-03-22T06:30:27.038Z,6.27
2023-03-22T06:31:47.834Z,4.90
2023-03-22T06:32:49.239Z,4.73
2023-03-22T06:33:50.764Z,5.50
2023-03-22T06:35:01.295Z,6.67
2023-03-22T06:36:03.416Z,4.27
2023-03-22T06:37:14.338Z,5.90
2023-03-22T06:38:17.233Z,9.57
2023-03-22T06:39:20.405Z,5.63
2023-03-22T06:40:23.009Z,6.50
2023-03-22T06:41:24.700Z,5.97
2023-03-22T06:42:26.873Z,4.43
2023-03-22T06:43:37.670Z,6.03
2023-03-22T06:44:58.268Z,7.60
2023-03-22T06:46:03.040Z,5.37
2023-03-22T06:47:11.017Z,4.57
2023-03-22T06:48:30.817Z,6.80
2023-03-22T06:49:37.324Z,5.30
2023-03-22T06:50:40.287Z,4.70
2023-03-22T06:51:52.609Z,6.70
2023-03-22T06:52:54.443Z,4.77
2023-03-22T06:53:55.754Z,5.20
2023-03-22T06:54:57.369Z,5.53
2023-03-22T06:55:59.148Z,7.13
2023-03-22T06:57:01.404Z,4.90
2023-03-22T06:58:03.054Z,4.97
2023-03-22T06:59:04.384Z,7.90
2023-03-22T07:00:06.121Z,4.50
2023-03-22T07:01:07.683Z,7.30
2023-03-22T07:02:12.017Z,4.93
2023-03-22T07:03:15.996Z,3.90
2023-03-22T07:04:40.415Z,5.10
2023-03-22T07:05:41.795Z,7.07
2023-03-22T07:06:43.092Z,6.50
2023-03-22T07:07:44.422Z,4.57
2023-03-22T07:08:45.887Z,7.73
2023-03-22T07:09:50.517Z,5.40
2023-03-22T07:10:51.956Z,4.93
2023-03-22T07:11:56.212Z,6.83
2023-03-22T07:12:58.341Z,5.60
2023-03-22T07:13:59.904Z,7.87
2023-03-22T07:15:08.233Z,6.43
2023-03-22T07:16:23.682Z,5.77
2023-03-22T07:17:27.984Z,6.80
2023-03-22T07:18:30.406Z,7.93
2023-03-22T07:19:32.447Z,5.93
2023-03-22T07:20:41.308Z,6.37
2023-03-22T07:21:43.246Z,7.63
2023-03-22T07:22:46.557Z,3.63
2023-03-22T07:23:48.072Z,6.73
2023-03-22T07:24:57.705Z,7.03
2023-03-22T07:26:01.601Z,6.67
2023-03-22T07:27:07.116Z,4.67
2023-03-22T07:28:11.397Z,8.30
2023-03-22T07:29:12.877Z,6.93
2023-03-22T07:30:14.288Z,6.33
2023-03-22T07:31:19.642Z,6.97
2023-03-22T07:32:47.036Z,5.20
2023-03-22T07:33:48.834Z,4.53
2023-03-22T07:34:51.005Z,5.67
2023-03-22T07:35:53.635Z,5.47
2023-03-22T07:36:56.949Z,5.73
2023-03-22T07:37:58.749Z,5.47
2023-03-22T07:39:06.022Z,6.83
2023-03-22T07:40:10.916Z,5.80
2023-03-22T07:41:12.275Z,6.00
2023-03-22T07:42:28.735Z,7.40
2023-03-22T07:43:56.576Z,4.80
2023-03-22T07:45:03.889Z,5.60
2023-03-22T07:46:17.162Z,5.93
2023-03-22T07:47:51.089Z,5.43
2023-03-22T07:49:24.687Z,6.60
2023-03-22T07:50:39.947Z,5.77
2023-03-22T07:51:41.447Z,5.03
2023-03-22T07:52:43.665Z,5.07
2023-03-22T07:53:45.221Z,5.43
2023-03-22T07:54:46.603Z,4.70
2023-03-22T07:55:47.938Z,5.70
2023-03-22T07:56:49.418Z,6.10
2023-03-22T07:57:51.177Z,6.47
2023-03-22T07:58:52.807Z,5.80
2023-03-22T07:59:54.254Z,4.27
2023-03-22T08:00:55.716Z,6.70
2023-03-22T08:02:23.353Z,5.00
2023-03-22T08:03:27.611Z,7.80
2023-03-22T08:04:35.972Z,4.07
2023-03-22T08:05:51.759Z,7.17
2023-03-22T08:06:59.989Z,4.80
2023-03-22T08:08:02.329Z,7.00
2023-03-22T08:09:04.770Z,5.53
2023-03-22T08:10:06.341Z,5.23
2023-03-22T08:11:09.361Z,4.87
2023-03-22T08:12:10.938Z,5.63
2023-03-22T08:13:13.307Z,5.17
2023-03-22T08:14:15.943Z,6.33
2023-03-22T08:15:17.623Z,4.67
2023-03-22T08:16:19.320Z,5.37
2023-03-22T08:17:20.755Z,8.43
2023-03-22T08:18:22.212Z,6.00
2023-03-22T08:19:23.625Z,6.60
2023-03-22T08:20:27.222Z,5.00
2023-03-22T08:21:31.302Z,5.97
2023-03-22T08:22:33.245Z,4.33
2023-03-22T08:24:13.218Z,4.17
2023-03-22T08:25:33.835Z,4.90
2023-03-22T08:26:42.602Z,6.23
2023-03-22T08:27:50.571Z,5.27
2023-03-22T08:28:52.189Z,4.33
2023-03-22T08:29:54.066Z,4.03
2023-03-22T08:30:58.789Z,7.43
2023-03-22T08:32:03.025Z,3.33
2023-03-22T08:33:05.239Z,4.77
2023-03-22T08:34:07.518Z,4.87
2023-03-22T08:35:12.272Z,5.13
2023-03-22T08:36:15.311Z,4.93
2023-03-22T08:37:22.370Z,5.83
2023-03-22T08:38:31.267Z,4.20
2023-03-22T08:39:33.732Z,3.93
2023-03-22T08:40:53.851Z,4.57
2023-03-22T08:41:58.826Z,4.23
2023-03-22T08:43:02.141Z,6.70
2023-03-22T08:44:05.646Z,3.97
2023-03-22T08:45:10.336Z,5.47
2023-03-22T08:46:21.152Z,4.10
2023-03-22T08:47:23.339Z,3.63
2023-03-22T08:48:30.954Z,2.87
2023-03-22T08:49:45.198Z,3.53
2023-03-22T08:50:54.140Z,4.83
2023-03-22T08:52:07.275Z,3.87
2023-03-22T08:53:29.569Z,3.67
2023-03-22T08:54:47.577Z,3.13
2023-03-22T08:56:08.058Z,3.63
2023-03-22T08:57:34.700Z,4.70
2023-03-22T08:58:57.727Z,2.83
2023-03-22T09:00:21.553Z,3.03
2023-03-22T09:01:31.374Z,4.30
2023-03-22T09:02:37.379Z,2.97
2023-03-22T09:03:38.998Z,5.13
2023-03-22T09:04:43.774Z,3.77
2023-03-22T09:05:45.843Z,3.90
2023-03-22T09:06:47.833Z,4.40
2023-03-22T09:07:53.397Z,2.90
2023-03-22T09:09:04.588Z,3.63
2023-03-22T09:10:07.712Z,4.17
2023-03-22T09:11:12.358Z,3.77
2023-03-22T09:12:14.150Z,2.87
2023-03-22T09:13:16.954Z,3.08
2023-03-22T09:14:24.720Z,3.47
2023-03-22T09:15:26.298Z,2.07
2023-03-22T09:16:42.799Z,2.50
2023-03-22T09:17:45.468Z,2.57
2023-03-22T09:18:49.995Z,1.53
2023-03-22T09:20:09.389Z,3.30
2023-03-22T09:21:13.431Z,1.90
2023-03-22T09:22:35.401Z,3.07
2023-03-22T09:23:38.120Z,2.80
2023-03-22T09:24:41.324Z,3.00
2023-03-22T09:25:43.743Z,2.00
2023-03-22T09:26:46.187Z,2.53
2023-03-22T09:27:50.416Z,2.10
2023-03-22T09:28:52.318Z,1.97
2023-03-22T09:29:54.229Z,3.73
2023-03-22T09:31:02.657Z,2.03
2023-03-22T09:32:04.821Z,3.23
2023-03-22T09:33:09.151Z,2.50
2023-03-22T09:34:12.599Z,3.47
2023-03-22T09:35:14.410Z,2.37
2023-03-22T09:36:32.407Z,1.93
2023-03-22T09:37:36.779Z,1.90
2023-03-22T09:38:39.278Z,3.97
2023-03-22T09:39:44.274Z,1.87
2023-03-22T09:40:52.390Z,1.77
2023-03-22T09:41:59.480Z,1.60
2023-03-22T09:43:04.598Z,3.13
2023-03-22T09:44:11.239Z,2.40
2023-03-22T09:45:21.315Z,2.87
2023-03-22T09:46:27.137Z,3.10
2023-03-22T09:47:44.443Z,2.10
2023-03-22T09:48:49.438Z,1.23
2023-03-22T09:49:55.802Z,2.83
2023-03-22T09:50:58.864Z,1.50
2023-03-22T09:52:12.008Z,3.07
2023-03-22T09:53:15.122Z,1.67
2023-03-22T09:54:21.659Z,2.03
2023-03-22T09:55:32.427Z,2.27
2023-03-22T09:56:34.211Z,3.00
2023-03-22T09:57:37.555Z,2.07
2023-03-22T09:58:48.454Z,2.07
2023-03-22T10:00:01.003Z,3.23
2023-03-22T10:01:05.522Z,2.30
2023-03-22T10:02:22.203Z,1.53
2023-03-22T10:03:29.915Z,1.37
2023-03-22T10:04:35.730Z,3.80
2023-03-22T10:05:37.544Z,3.00
2023-03-22T10:06:40.449Z,1.43
2023-03-22T10:07:54.408Z,3.10
2023-03-22T10:09:11.234Z,2.13
2023-03-22T10:10:20.381Z,1.93
2023-03-22T10:11:30.277Z,1.83
2023-03-22T10:12:41.367Z,2.30
2023-03-22T10:14:02.029Z,2.80
2023-03-22T10:15:06.160Z,2.10
2023-03-22T10:16:11.598Z,2.50
2023-03-22T10:17:16.095Z,2.10
2023-03-22T10:18:43.455Z,1.90
2023-03-22T10:19:55.013Z,2.83
2023-03-22T10:21:04.772Z,4.13
2023-03-22T10:22:07.191Z,2.93
2023-03-22T10:23:14.529Z,2.13
2023-03-22T10:24:22.872Z,2.13
2023-03-22T10:25:28.185Z,3.20
2023-03-22T10:26:36.597Z,1.97
2023-03-22T10:27:38.375Z,2.47
2023-03-22T10:28:44.557Z,2.17
2023-03-22T10:29:47.712Z,3.63
2023-03-22T10:30:57.228Z,3.27
2023-03-22T10:32:31.057Z,2.43
2023-03-22T10:33:35.569Z,5.03
2023-03-22T10:34:37.397Z,2.00
2023-03-22T10:35:39.390Z,2.07
2023-03-22T10:36:41.365Z,3.80
2023-03-22T10:37:49.231Z,3.50
2023-03-22T10:38:56.329Z,2.43
2023-03-22T10:39:59.957Z,3.23
2023-03-22T10:41:02.373Z,2.83
2023-03-22T10:42:05.893Z,1.83
2023-03-22T10:43:17.535Z,1.80
2023-03-22T10:44:19.777Z,2.03
2023-03-22T10:45:22.194Z,2.93
2023-03-22T10:46:28.787Z,2.30
2023-03-22T10:47:40.565Z,1.43
2023-03-22T10:48:44.223Z,1.47
2023-03-22T10:49:53.164Z,2.63
2023-03-22T10:50:56.284Z,2.27
2023-03-22T10:52:04.333Z,3.63
2023-03-22T10:53:14.928Z,3.47
2023-03-22T10:54:18.897Z,2.17
2023-03-22T10:55:20.820Z,1.80
2023-03-22T10:56:28.778Z,1.67
2023-03-22T10:57:30.418Z,2.37
2023-03-22T10:58:33.413Z,1.70
2023-03-22T10:59:59.709Z,2.13
2023-03-22T11:01:07.418Z,2.10
2023-03-22T11:02:23.520Z,2.00
2023-03-22T11:03:42.134Z,2.53
2023-03-22T11:04:47.466Z,1.00
2023-03-22T11:05:58.044Z,1.40
2023-03-22T11:06:59.958Z,2.50
2023-03-22T11:08:02.439Z,3.50
2023-03-22T11:09:12.431Z,2.67
2023-03-22T11:10:17.276Z,4.07
2023-03-22T11:11:22.045Z,1.23
2023-03-22T11:12:23.714Z,2.00
2023-03-22T11:13:26.023Z,2.67
2023-03-22T11:14:33.925Z,3.63
2023-03-22T11:15:36.789Z,4.10
2023-03-22T11:16:50.478Z,2.35
2023-03-22T11:17:54.245Z,6.38
2023-03-22T11:18:57.146Z,2.40
2023-03-22T11:19:59.976Z,3.20
2023-03-22T11:21:06.421Z,2.87
2023-03-22T11:22:25.835Z,2.70
2023-03-22T11:23:29.391Z,1.63
2023-03-22T11:24:32.093Z,1.70
2023-03-22T11:25:35.596Z,2.87
2023-03-22T11:26:40.761Z,3.40
2023-03-22T11:27:55.176Z,2.30
2023-03-22T11:29:08.630Z,1.90
2023-03-22T11:30:31.566Z,2.40
2023-03-22T11:31:59.346Z,2.97
2023-03-22T11:33:01.516Z,1.93
2023-03-22T11:34:03.901Z,2.70
2023-03-22T11:35:15.524Z,3.35
2023-03-22T11:36:18.470Z,2.03
2023-03-22T11:37:22.149Z,2.63
2023-03-22T11:38:24.374Z,3.20
2023-03-22T11:39:29.481Z,4.40
2023-03-22T11:40:35.846Z,3.50
2023-03-22T11:41:39.821Z,2.50
2023-03-22T11:42:42.022Z,2.83
2023-03-22T11:43:48.440Z,4.25
2023-03-22T11:44:55.992Z,3.45
2023-03-22T11:46:04.286Z,2.63
2023-03-22T11:47:08.582Z,1.40
2023-03-22T11:48:16.748Z,3.53
2023-03-22T11:49:18.906Z,2.45
2023-03-22T11:50:33.990Z,4.75
2023-03-22T11:51:42.531Z,1.95
2023-03-22T11:52:47.229Z,2.95
2023-03-22T11:53:50.225Z,2.00
2023-03-22T11:54:53.579Z,2.20
2023-03-22T11:55:57.004Z,2.22
2023-03-22T11:57:06.322Z,1.85
2023-03-22T11:58:08.273Z,2.60
2023-03-22T11:59:14.147Z,1.80
2023-03-22T12:00:24.508Z,1.33
2023-03-22T12:01:35.771Z,3.67
2023-03-22T12:04:22.065Z,2.88
2023-03-22T12:05:38.012Z,1.40
2023-03-22T12:06:41.275Z,1.87
2023-03-22T12:07:50.423Z,2.60
2023-03-22T12:08:55.992Z,1.00
2023-03-22T12:10:01.518Z,1.65
2023-03-22T12:11:07.598Z,1.98
2023-03-22T12:12:25.037Z,3.67
2023-03-22T12:13:43.610Z,3.42
2023-03-22T12:14:48.500Z,1.95
2023-03-22T12:15:53.018Z,2.70
2023-03-22T12:17:14.008Z,1.73
2023-03-22T12:18:19.721Z,1.95
2023-03-22T12:19:40.176Z,2.83
2023-03-22T12:20:50.758Z,1.67
2023-03-22T12:21:53.035Z,1.35
2023-03-22T12:23:18.555Z,2.70
2023-03-22T12:24:27.316Z,1.92
2023-03-22T12:25:39.082Z,2.10
2023-03-22T12:26:43.169Z,3.17
2023-03-22T12:27:50.736Z,1.23
2023-03-22T12:29:03.635Z,1.17
2023-03-22T12:30:12.680Z,2.78
2023-03-22T12:31:19.475Z,5.60
2023-03-22T12:32:38.675Z,2.17
2023-03-22T12:33:44.868Z,1.27
2023-03-22T12:34:48.159Z,1.27
2023-03-22T12:35:51.099Z,1.45
2023-03-22T12:36:54.279Z,1.75
2023-03-22T12:37:56.606Z,2.63
2023-03-22T12:38:58.878Z,3.00
2023-03-22T12:40:05.999Z,2.03
2023-03-22T12:41:10.909Z,3.50
2023-03-22T12:42:21.877Z,1.42
2023-03-22T12:43:42.100Z,1.73
2023-03-22T12:44:44.925Z,2.15
2023-03-22T12:45:58.361Z,1.85
2023-03-22T12:47:02.752Z,3.05
2023-03-22T12:48:17.647Z,1.13
2023-03-22T12:49:28.186Z,1.65
2023-03-22T12:50:29.485Z,1.08
2023-03-22T12:51:30.951Z,2.42
2023-03-22T12:52:46.123Z,1.77
2023-03-22T12:53:50.685Z,1.63
2023-03-22T12:54:52.715Z,2.55
2023-03-22T12:55:56.066Z,1.85
2023-03-22T12:56:57.595Z,2.92
2023-03-22T12:57:59.297Z,1.63
2023-03-22T12:59:05.729Z,2.50
2023-03-22T13:00:13.578Z,1.45
2023-03-22T13:01:33.330Z,2.00
2023-03-22T13:02:35.176Z,2.97
2023-03-22T13:03:39.200Z,1.35
2023-03-22T13:04:43.108Z,1.58
2023-03-22T13:05:45.996Z,2.13
2023-03-22T13:06:47.706Z,1.80
2023-03-22T13:07:49.116Z,2.53
2023-03-22T13:09:09.179Z,1.25
2023-03-22T13:10:29.273Z,1.40
2023-03-22T13:11:30.686Z,2.22
2023-03-22T13:12:33.276Z,1.88
2023-03-22T13:13:42.653Z,2.13
2023-03-22T13:14:53.209Z,2.95
2023-03-22T13:16:02.695Z,4.07
2023-03-22T13:17:07.288Z,2.05
2023-03-22T13:18:27.557Z,2.05
2023-03-22T13:19:33.718Z,1.52
2023-03-22T13:20:35.048Z,2.30
2023-03-22T13:21:39.766Z,1.70
2023-03-22T13:22:41.646Z,1.65
2023-03-22T13:24:01.894Z,2.00
2023-03-22T13:25:03.248Z,2.65
2023-03-22T13:26:05.085Z,2.10
2023-03-22T13:27:07.290Z,3.33
2023-03-22T13:28:26.205Z,2.63
2023-03-22T13:29:32.369Z,1.17
2023-03-22T13:30:35.822Z,2.10
2023-03-22T13:31:45.088Z,1.40
2023-03-22T13:32:56.039Z,3.42
2023-03-22T13:34:01.136Z,1.65
2023-03-22T13:35:03.154Z,2.63
2023-03-22T13:36:23.829Z,3.55
2023-03-22T13:37:35.620Z,1.45
2023-03-22T13:38:42.579Z,1.13
2023-03-22T13:39:49.369Z,1.05
2023-03-22T13:40:59.382Z,1.40
2023-03-22T13:42:07.454Z,1.70
2023-03-22T13:43:12.862Z,2.97
2023-03-22T13:44:31.490Z,1.42
2023-03-22T13:45:33.815Z,2.10
2023-03-22T13:46:38.043Z,2.80
2023-03-22T13:47:46.578Z,3.90
2023-03-22T13:48:48.632Z,2.05
2023-03-22T13:49:54.118Z,1.92
2023-03-22T13:50:56.461Z,2.55
2023-03-22T13:51:59.201Z,1.98
2023-03-22T13:53:06.453Z,1.13
2023-03-22T13:54:13.845Z,2.90
2023-03-22T13:55:35.796Z,2.15
2023-03-22T13:56:56.233Z,2.92
2023-03-22T13:57:58.997Z,1.75
2023-03-22T13:59:00.978Z,3.03
2023-03-22T14:00:15.555Z,1.27
2023-03-22T14:01:23.933Z,2.03
2023-03-22T14:02:27.637Z,2.63
2023-03-22T14:03:35.182Z,2.85
2023-03-22T14:04:42.697Z,1.85
2023-03-22T14:05:45.514Z,1.60
2023-03-22T14:06:52.721Z,3.13
2023-03-22T14:07:56.162Z,2.25
2023-03-22T14:09:01.922Z,1.83
2023-03-22T14:10:12.583Z,3.60
2023-03-22T14:11:23.656Z,1.67
2023-03-22T14:12:32.257Z,1.88
2023-03-22T14:13:40.195Z,0.95
2023-03-22T14:14:42.921Z,1.73
2023-03-22T14:15:55.671Z,2.28
2023-03-22T14:17:02.331Z,1.67
2023-03-22T14:18:11.545Z,1.65
2023-03-22T14:19:18.267Z,2.08
2023-03-22T14:20:21.535Z,2.40
2023-03-22T14:21:30.036Z,2.85
